Aérodrome :
LOGIN :

S'inscrire | Disclaimer

   EN    FR    IT 

 










Légende :    VFR   VFR Marginal   IFR   IFR Intensif   IFR Très Intensif
Visi : 
Plafond : 
>= 8 km
>= 3000ft
5 à 8 km
1000 à 3000 ft
1500m à 5 km
500 à 1000 ft
800 à 1500m
200 à 500 ft
< 800m
< 200 ft
Symboles :   Orages  Brouillard  Fortes neiges  Fortes précipitations  Vent > 20 kt
SIGMETs :   Divers  Orages  Givrage  Turbulence  Onde Orograph.  Cendres Volcan.







- Altitude de l'aérodrome : 1455 ft


ETIH - Hohenfels Army Air Field

DERNIER METAR :
  • 190259Z AUTO 00000KT 5000 BR CLR 06/06 A3019 RMK AO2 SLP225 $

METARs EXPIRÉS :
  • 190232Z AUTO 00000KT 3200 BR CLR 06/06 A3019 RMK AO2 VIS 2000V3200 SLP225 $
  • 190211Z AUTO 00000KT 2800 BR CLR 06/06 A3019 RMK AO2 SLP224 $
  • 190156Z AUTO 35003KT 3600 BR CLR 07/07 A3019 RMK AO2 SLP224 T00740074 $
  • 190114Z AUTO 00000KT 3200 BR CLR 07/07 A3019 RMK AO2 VIS 3000V4000 SLP224 $
  • 190056Z AUTO 00000KT 3600 BR CLR 07/07 A3019 RMK AO2 VIS 3600V6000 SLP224 T00730072 $
  • 190051Z AUTO 00000KT 4400 BR CLR 08/08 A3019 RMK AO2 VIS 4400V6000 SLP224 $

Prévision TAF périmée.
Pas de NOTAMs connus pour ce terrain.



MET'MAP, la Météo Aéronautique d'un coup d'oeil ! - Copyright ORBIFLY Décembre 2007 - Disclaimer

ORBIFLY MET'MAP TEAM :

Programmation & Développement : Alexandra Zaïnal
Conception & Développement : Baudouin d'Aumeries
Co-Programmation & Développement : Marc-Olivier Méhu
Soutien technique & logistique : Manuel Goepfert

Contact : metmap@orbifly.com




SOURCES & CREDITS :

   NOAA